Time;durP1;ratioP1;P1;durP2;ratioP2;P2;SDS_P1;SDS_P2;PMS_P1;PMS_P2;Temp;Humidity;BMP_temperature;BMP_pressure;BME280_temperature;BME280_humidity;BME280_pressure;Samples;Min_cycle;Max_cycle;Signal;HPM_P1;HPM_P2
2022/06/28 00:00:08;;;;;;;5.82;2.38;;;16.40;47.80;;;;;;4963243;28;20031;-76
2022/06/28 00:02:34;;;;;;;5.47;1.50;;;16.30;47.80;;;;;;4969064;28;20069;-75
2022/06/28 00:05:00;;;;;;;4.30;2.08;;;16.40;48.00;;;;;;4965942;28;20038;-75
2022/06/28 00:07:27;;;;;;;6.10;1.50;;;16.30;47.90;;;;;;4969252;28;20027;-75
2022/06/28 00:09:52;;;;;;;5.47;1.85;;;16.30;48.10;;;;;;4943104;28;20051;-75
2022/06/28 00:12:18;;;;;;;3.50;1.52;;;16.20;48.10;;;;;;4951437;28;20034;-75
2022/06/28 00:17:29;;;;;;;4.95;1.85;;;16.20;48.30;;;;;;4961333;28;20101;-75
2022/06/28 00:19:55;;;;;;;4.70;2.63;;;16.10;48.10;;;;;;4976987;28;20474;-75
2022/06/28 00:22:20;;;;;;;3.78;1.60;;;16.00;48.00;;;;;;4953292;28;20031;-75
2022/06/28 00:24:46;;;;;;;4.35;1.67;;;16.00;48.20;;;;;;4963935;28;20513;-75
2022/06/28 00:27:12;;;;;;;4.43;1.30;;;16.00;48.30;;;;;;4950804;28;20070;-75
2022/06/28 00:29:39;;;;;;;8.45;2.00;;;16.00;48.40;;;;;;4965083;28;20078;-75
2022/06/28 00:32:05;;;;;;;3.58;1.65;;;16.00;48.60;;;;;;4962260;28;20405;-75
2022/06/28 00:34:31;;;;;;;3.88;1.33;;;16.00;48.70;;;;;;4948777;28;20401;-76
2022/06/28 00:36:57;;;;;;;5.15;1.33;;;15.90;48.50;;;;;;4950144;28;20046;-75
2022/06/28 00:39:23;;;;;;;6.32;1.55;;;15.90;48.60;;;;;;4953135;28;20397;-75
2022/06/28 00:41:49;;;;;;;5.68;1.65;;;15.90;48.70;;;;;;4967606;28;20066;-75
2022/06/28 00:44:15;;;;;;;5.43;1.70;;;15.90;48.80;;;;;;4923470;28;20519;-76
2022/06/28 00:46:42;;;;;;;7.47;2.35;;;15.80;48.70;;;;;;4944645;28;20019;-75
2022/06/28 00:49:08;;;;;;;3.97;1.55;;;15.80;48.80;;;;;;4967086;28;20046;-76
2022/06/28 00:51:35;;;;;;;4.90;1.52;;;15.80;48.90;;;;;;4929077;28;20459;-75
2022/06/28 00:54:01;;;;;;;4.55;1.50;;;15.80;49.00;;;;;;4964871;28;20066;-75
2022/06/28 00:56:27;;;;;;;4.88;1.60;;;15.80;49.10;;;;;;4958840;28;20105;-75
2022/06/28 00:58:55;;;;;;;5.00;1.80;;;15.80;49.20;;;;;;4978836;28;20129;-75
2022/06/28 01:01:22;;;;;;;5.20;1.48;;;15.80;49.30;;;;;;4956878;28;20082;-75
2022/06/28 01:03:50;;;;;;;3.92;1.30;;;15.80;49.30;;;;;;4983123;28;20033;-75
2022/06/28 01:06:16;;;;;;;6.00;1.65;;;15.70;49.20;;;;;;4978424;28;20038;-76
2022/06/28 01:08:45;;;;;;;8.70;2.97;;;15.70;49.30;;;;;;4982529;28;20477;-76
2022/06/28 01:11:21;;;;;;;6.90;2.88;;;15.70;49.40;;;;;;4942178;28;20037;-75
2022/06/28 01:13:54;;;;;;;5.75;1.98;;;15.70;49.50;;;;;;4950702;28;20045;-75
2022/06/28 01:16:22;;;;;;;4.35;1.23;;;15.70;49.60;;;;;;4949691;28;20446;-75
2022/06/28 01:18:51;;;;;;;4.88;1.00;;;15.60;50.00;;;;;;4943839;28;20077;-75
2022/06/28 01:21:30;;;;;;;5.15;1.70;;;15.60;49.50;;;;;;4943269;28;20033;-75
2022/06/28 01:23:57;;;;;;;4.63;1.35;;;15.60;49.60;;;;;;4949108;28;20134;-75
2022/06/28 01:26:42;;;;;;;10.38;2.45;;;15.60;49.70;;;;;;4974152;28;20039;-76
2022/06/28 01:29:09;;;;;;;6.07;1.27;;;15.60;49.80;;;;;;4965528;28;20326;-76
2022/06/28 01:31:50;;;;;;;7.85;1.60;;;15.60;49.90;;;;;;4941487;28;20019;-75
2022/06/28 01:34:17;;;;;;;3.80;1.30;;;15.50;49.80;;;;;;4949896;28;20053;-75
2022/06/28 01:36:44;;;;;;;6.22;1.65;;;15.50;49.90;;;;;;4949369;28;20388;-76
2022/06/28 01:39:11;;;;;;;4.65;2.42;;;15.50;49.90;;;;;;4948685;28;20030;-76
2022/06/28 01:41:37;;;;;;;6.80;1.85;;;15.50;50.00;;;;;;4949232;28;20029;-75
2022/06/28 01:44:19;;;;;;;5.47;1.48;;;15.50;50.20;;;;;;4960590;28;20038;-76
2022/06/28 01:47:11;;;;;;;8.23;1.80;;;15.50;50.80;;;;;;4952842;28;20039;-77
2022/06/28 01:50:03;;;;;;;5.00;1.42;;;15.50;50.30;;;;;;4963347;28;20608;-75
2022/06/28 01:52:40;;;;;;;6.22;1.40;;;15.40;50.10;;;;;;4944638;28;20030;-76
2022/06/28 01:55:17;;;;;;;5.93;1.60;;;15.40;50.20;;;;;;4934292;28;20035;-75
2022/06/28 01:57:46;;;;;;;5.85;1.65;;;15.40;50.30;;;;;;4952997;28;20054;-75
2022/06/28 02:00:12;;;;;;;4.13;1.25;;;15.30;50.20;;;;;;4950707;28;20030;-75
2022/06/28 02:02:42;;;;;;;4.72;1.50;;;15.40;50.50;;;;;;4970192;28;20027;-76
2022/06/28 02:05:43;;;;;;;4.30;1.15;;;15.40;50.60;;;;;;4947005;28;20043;-75
2022/06/28 02:08:10;;;;;;;6.13;1.58;;;15.30;50.40;;;;;;4983648;28;20109;-76
2022/06/28 02:10:48;;;;;;;4.13;1.13;;;15.30;50.50;;;;;;4947237;28;20062;-75
2022/06/28 02:13:14;;;;;;;5.60;1.90;;;15.30;50.60;;;;;;4981148;28;20394;-75
2022/06/28 02:15:40;;;;;;;8.93;1.40;;;15.30;50.70;;;;;;4966602;28;20038;-75
2022/06/28 02:18:06;;;;;;;5.82;1.45;;;15.30;50.80;;;;;;4977208;28;20039;-75
2022/06/28 02:20:33;;;;;;;7.45;1.55;;;15.20;50.70;;;;;;4956488;28;20070;-75
2022/06/28 02:22:59;;;;;;;4.13;1.40;;;15.20;50.80;;;;;;4957338;28;20627;-75
2022/06/28 02:25:25;;;;;;;3.90;1.92;;;15.10;50.70;;;;;;4969828;28;20039;-75
2022/06/28 02:27:51;;;;;;;4.30;1.63;;;15.20;51.00;;;;;;4993789;28;20053;-75
2022/06/28 02:30:21;;;;;;;5.43;1.52;;;15.10;50.90;;;;;;4972057;28;20037;-75
2022/06/28 02:32:47;;;;;;;5.95;1.50;;;15.10;51.00;;;;;;4973555;28;20058;-75
2022/06/28 02:40:42;;;;;;;8.68;2.80;;;15.00;51.10;;;;;;4969758;28;20033;-74
2022/06/28 02:43:08;;;;;;;6.07;1.70;;;15.00;51.10;;;;;;4967421;28;20026;-75
2022/06/28 02:45:35;;;;;;;4.75;1.58;;;15.00;51.20;;;;;;4968819;28;20031;-76
2022/06/28 02:48:02;;;;;;;4.93;1.25;;;15.00;51.30;;;;;;4951668;28;20042;-75
2022/06/28 02:50:30;;;;;;;5.50;2.17;;;15.00;51.40;;;;;;4959517;28;20109;-75
2022/06/28 02:52:57;;;;;;;5.57;1.67;;;15.00;51.50;;;;;;4940301;28;20384;-77
2022/06/28 02:55:22;;;;;;;7.82;1.73;;;15.00;51.60;;;;;;4973120;28;20038;-74
2022/06/28 02:57:48;;;;;;;7.93;2.42;;;15.00;51.60;;;;;;4951982;28;20482;-74
2022/06/28 03:00:17;;;;;;;3.40;0.90;;;15.00;51.70;;;;;;4935094;28;20038;-73
2022/06/28 03:02:45;;;;;;;6.90;2.00;;;15.00;51.80;;;;;;4943660;28;20409;-74
2022/06/28 03:05:18;;;;;;;5.30;1.38;;;14.90;52.20;;;;;;4950203;28;20035;-74
2022/06/28 03:07:45;;;;;;;5.18;1.40;;;14.90;51.70;;;;;;4966930;28;20372;-74
2022/06/28 03:10:12;;;;;;;6.47;2.45;;;14.90;51.70;;;;;;4949225;28;20050;-76
2022/06/28 03:12:38;;;;;;;7.53;1.60;;;14.90;51.90;;;;;;4960408;28;20154;-74
2022/06/28 03:15:05;;;;;;;6.60;3.10;;;14.90;52.00;;;;;;4981895;28;20058;-74
2022/06/28 03:17:32;;;;;;;4.53;1.77;;;14.80;51.90;;;;;;4944270;28;20086;-74
2022/06/28 03:19:58;;;;;;;5.32;1.98;;;14.80;51.90;;;;;;4949765;28;20062;-74
2022/06/28 03:22:24;;;;;;;5.13;1.75;;;14.80;52.10;;;;;;4948968;28;20165;-75
2022/06/28 03:24:50;;;;;;;4.93;1.25;;;14.80;52.20;;;;;;4945065;28;20046;-74
2022/06/28 03:27:16;;;;;;;6.07;1.90;;;14.80;52.20;;;;;;4947283;28;20031;-74
2022/06/28 03:29:42;;;;;;;6.18;2.08;;;14.70;52.20;;;;;;4961776;28;20364;-74
2022/06/28 03:32:11;;;;;;;6.80;1.90;;;14.70;52.20;;;;;;4944267;28;20025;-74
2022/06/28 03:34:38;;;;;;;7.28;1.50;;;14.70;52.20;;;;;;4961092;28;20073;-74
2022/06/28 03:37:04;;;;;;;9.10;2.20;;;14.70;52.40;;;;;;4951461;28;20035;-74
2022/06/28 03:39:43;;;;;;;7.95;1.45;;;14.70;52.40;;;;;;4937892;28;20035;-76
2022/06/28 03:42:10;;;;;;;7.95;2.17;;;14.70;52.40;;;;;;4969709;28;20163;-77
2022/06/28 03:44:38;;;;;;;7.82;1.17;;;14.70;52.50;;;;;;4938862;28;20026;-76
2022/06/28 03:47:06;;;;;;;5.60;2.22;;;14.70;52.60;;;;;;4951118;28;20063;-77
2022/06/28 03:49:50;;;;;;;8.40;1.73;;;14.70;52.70;;;;;;4967221;28;20203;-75
2022/06/28 03:52:36;;;;;;;6.18;1.30;;;14.60;52.50;;;;;;4968937;28;20031;-76
2022/06/28 03:55:21;;;;;;;5.05;1.35;;;14.60;52.50;;;;;;4952037;28;20155;-76
2022/06/28 03:57:49;;;;;;;5.80;2.17;;;14.60;52.50;;;;;;4950516;28;20031;-76
2022/06/28 04:00:16;;;;;;;6.32;1.67;;;14.60;52.60;;;;;;4949304;28;20027;-76
2022/06/28 04:02:47;;;;;;;6.63;1.77;;;14.60;52.70;;;;;;4967000;28;20034;-76
2022/06/28 04:05:26;;;;;;;5.68;1.95;;;14.60;52.80;;;;;;4966229;28;20031;-76
2022/06/28 04:07:53;;;;;;;6.50;1.42;;;14.60;52.80;;;;;;4948535;28;20138;-77
2022/06/28 04:10:28;;;;;;;4.65;1.33;;;14.60;52.80;;;;;;4970195;28;20034;-76
2022/06/28 04:13:00;;;;;;;9.27;2.08;;;14.70;53.10;;;;;;4957136;28;20477;-76
2022/06/28 04:15:26;;;;;;;6.57;2.03;;;14.70;53.10;;;;;;4949833;28;20063;-77
2022/06/28 04:18:00;;;;;;;6.82;1.45;;;14.70;53.10;;;;;;4948692;28;20105;-76
2022/06/28 04:20:29;;;;;;;6.63;1.67;;;14.70;53.10;;;;;;4968140;28;20034;-76
2022/06/28 04:23:02;;;;;;;5.95;1.30;;;14.70;53.30;;;;;;4950242;28;20134;-77
2022/06/28 04:25:29;;;;;;;5.00;1.48;;;14.70;53.20;;;;;;4943065;28;20042;-77
2022/06/28 04:28:00;;;;;;;7.68;1.77;;;14.80;53.40;;;;;;4969807;28;20065;-76
2022/06/28 04:30:26;;;;;;;5.40;1.92;;;14.80;53.50;;;;;;4949509;28;20478;-77
2022/06/28 04:32:57;;;;;;;5.60;2.42;;;14.80;53.50;;;;;;4954517;28;20074;-76
2022/06/28 04:35:26;;;;;;;5.82;1.50;;;14.80;53.50;;;;;;4954535;28;20090;-75
2022/06/28 04:37:53;;;;;;;9.27;1.92;;;14.90;53.60;;;;;;4944045;28;20031;-74
2022/06/28 04:40:33;;;;;;;5.07;1.55;;;14.90;53.70;;;;;;4939141;28;20075;-77
2022/06/28 04:43:13;;;;;;;6.22;1.33;;;14.90;53.60;;;;;;4964560;28;20050;-77
2022/06/28 04:45:39;;;;;;;6.38;2.10;;;14.90;53.60;;;;;;4957690;28;20045;-73
2022/06/28 04:48:10;;;;;;;6.63;1.38;;;15.00;53.70;;;;;;4950146;28;20030;-77
2022/06/28 04:50:36;;;;;;;5.97;1.67;;;15.00;53.70;;;;;;4949628;28;20035;-74
2022/06/28 04:53:03;;;;;;;5.60;1.25;;;15.10;53.80;;;;;;4961562;28;20068;-74
2022/06/28 04:55:30;;;;;;;5.93;1.40;;;15.10;53.80;;;;;;4935415;28;20105;-75
2022/06/28 04:58:04;;;;;;;6.93;1.90;;;15.20;54.00;;;;;;4945658;28;20515;-74
2022/06/28 05:00:30;;;;;;;7.90;1.92;;;15.20;53.90;;;;;;4945439;28;20066;-74
2022/06/28 05:03:04;;;;;;;6.25;1.55;;;15.30;54.10;;;;;;4941328;28;20548;-75
2022/06/28 05:05:50;;;;;;;6.85;2.55;;;15.40;54.20;;;;;;4899843;28;20050;-75
2022/06/28 05:08:17;;;;;;;6.32;2.13;;;15.50;54.20;;;;;;4949593;28;20049;-75
2022/06/28 05:10:58;;;;;;;5.43;1.27;;;15.50;54.10;;;;;;4946186;28;20031;-75
2022/06/28 05:13:56;;;;;;;6.30;1.25;;;15.60;54.10;;;;;;4940549;28;20185;-75
2022/06/28 05:16:24;;;;;;;5.20;2.95;;;15.80;54.30;;;;;;4950275;28;20039;-74
2022/06/28 05:18:51;;;;;;;5.40;1.65;;;15.90;54.30;;;;;;4958136;28;20027;-74
2022/06/28 05:21:24;;;;;;;4.50;1.65;;;16.00;54.40;;;;;;4933753;28;20387;-74
2022/06/28 05:23:50;;;;;;;6.32;2.33;;;16.10;54.30;;;;;;4950016;28;20046;-74
2022/06/28 05:26:35;;;;;;;9.35;2.70;;;16.30;54.50;;;;;;4955284;28;20085;-74
2022/06/28 05:29:15;;;;;;;7.80;1.92;;;16.40;54.40;;;;;;4959995;28;20517;-73
2022/06/28 05:31:41;;;;;;;7.20;2.35;;;16.60;54.50;;;;;;4953048;28;20027;-73
2022/06/28 05:34:08;;;;;;;8.45;1.58;;;16.70;54.60;;;;;;4944981;28;20105;-74
2022/06/28 05:36:37;;;;;;;6.68;1.92;;;16.90;54.70;;;;;;4956058;28;20449;-74
2022/06/28 05:39:04;;;;;;;4.60;1.38;;;17.10;54.90;;;;;;4953058;28;20031;-74
2022/06/28 05:41:32;;;;;;;5.82;1.55;;;17.30;55.10;;;;;;4949013;28;20519;-74
2022/06/28 05:43:59;;;;;;;7.00;1.58;;;17.50;55.10;;;;;;4959587;28;20066;-74
2022/06/28 05:46:25;;;;;;;4.22;1.50;;;17.80;55.20;;;;;;4949515;28;20034;-74
2022/06/28 05:48:52;;;;;;;5.57;1.40;;;18.00;55.10;;;;;;4941797;28;20272;-75
2022/06/28 05:51:18;;;;;;;9.52;2.65;;;18.20;55.10;;;;;;4981686;28;20037;-74
2022/06/28 05:53:44;;;;;;;6.47;1.70;;;18.50;55.80;;;;;;4949576;28;20123;-74
2022/06/28 05:56:10;;;;;;;7.97;1.90;;;18.70;55.30;;;;;;4948375;28;20034;-74
2022/06/28 05:58:36;;;;;;;4.90;1.20;;;18.80;56.20;;;;;;4958105;28;20031;-76
2022/06/28 06:01:03;;;;;;;8.20;2.38;;;18.90;55.90;;;;;;4967043;28;20035;-77
2022/06/28 06:03:28;;;;;;;5.78;1.58;;;19.00;56.40;;;;;;4981753;28;20473;-77
2022/06/28 06:05:54;;;;;;;5.28;1.92;;;19.10;56.90;;;;;;4947502;28;20031;-76
2022/06/28 06:08:21;;;;;;;5.00;2.03;;;19.30;57.70;;;;;;4979751;28;20522;-76
2022/06/28 06:10:48;;;;;;;4.80;1.60;;;19.60;58.30;;;;;;4968125;28;20556;-76
2022/06/28 06:13:14;;;;;;;5.57;1.83;;;20.00;58.80;;;;;;4948368;28;20031;-76
2022/06/28 06:15:40;;;;;;;6.13;1.63;;;20.30;59.00;;;;;;4968257;28;20038;-76
2022/06/28 06:18:06;;;;;;;5.05;1.77;;;20.60;59.10;;;;;;4965713;28;20039;-76
2022/06/28 06:20:32;;;;;;;2.72;1.40;;;21.00;59.30;;;;;;4957296;28;20151;-76
2022/06/28 06:22:58;;;;;;;10.13;2.75;;;21.30;59.20;;;;;;4944707;28;20027;-76
2022/06/28 06:25:42;;;;;;;4.72;1.52;;;21.60;59.10;;;;;;4961598;28;20445;-76
2022/06/28 06:28:09;;;;;;;9.25;3.30;;;22.10;59.20;;;;;;4934902;28;20189;-76
2022/06/28 06:30:36;;;;;;;4.82;1.70;;;22.50;58.80;;;;;;4942232;28;20093;-77
2022/06/28 06:33:13;;;;;;;4.32;1.30;;;22.90;58.50;;;;;;4948808;28;20093;-76
2022/06/28 06:35:48;;;;;;;10.45;3.40;;;23.40;58.10;;;;;;4966313;28;20035;-77
2022/06/28 06:38:14;;;;;;;9.30;3.10;;;23.80;57.10;;;;;;4941988;28;20071;-75
2022/06/28 06:40:42;;;;;;;7.40;1.70;;;24.00;55.90;;;;;;4943289;28;20033;-76
2022/06/28 06:43:08;;;;;;;6.75;1.90;;;24.00;54.90;;;;;;4945019;28;20035;-76
2022/06/28 06:45:34;;;;;;;13.18;2.95;;;24.10;54.20;;;;;;4963360;28;20458;-76
2022/06/28 06:48:02;;;;;;;8.90;2.25;;;24.30;53.70;;;;;;4929891;28;20501;-75
2022/06/28 06:50:28;;;;;;;9.93;3.13;;;24.50;53.30;;;;;;4948225;28;20158;-76
2022/06/28 06:52:55;;;;;;;7.75;1.95;;;24.70;52.90;;;;;;4942464;28;20102;-76
2022/06/28 06:55:20;;;;;;;9.95;2.17;;;25.00;52.90;;;;;;4941781;28;20341;-76
2022/06/28 06:57:46;;;;;;;9.57;2.17;;;25.30;52.10;;;;;;4947616;28;20042;-76
2022/06/28 07:00:14;;;;;;;11.02;2.55;;;25.30;51.60;;;;;;4951273;28;20061;-76
2022/06/28 07:02:41;;;;;;;9.98;2.47;;;25.30;51.20;;;;;;4956761;28;20094;-75
2022/06/28 07:05:08;;;;;;;9.95;2.95;;;25.10;51.10;;;;;;4946213;28;20468;-76
2022/06/28 07:07:34;;;;;;;9.20;2.90;;;25.00;51.20;;;;;;4947658;28;20085;-75
2022/06/28 07:10:02;;;;;;;10.30;1.95;;;24.80;50.90;;;;;;4928220;28;20450;-76
2022/06/28 07:12:29;;;;;;;8.48;1.80;;;24.60;50.60;;;;;;4959627;28;20580;-76
2022/06/28 07:14:55;;;;;;;12.13;2.65;;;24.50;50.70;;;;;;4978509;28;20134;-76
2022/06/28 07:17:25;;;;;;;6.85;1.80;;;24.40;50.70;;;;;;4947619;28;20071;-74
2022/06/28 07:19:51;;;;;;;8.02;1.92;;;24.50;50.60;;;;;;4946977;28;20043;-75
2022/06/28 07:22:17;;;;;;;7.20;1.60;;;24.70;50.50;;;;;;4965774;28;20033;-76
2022/06/28 07:24:44;;;;;;;4.97;1.77;;;24.90;50.60;;;;;;4937027;29;20633;-76
2022/06/28 07:27:11;;;;;;;9.32;2.10;;;25.10;50.50;;;;;;4947097;28;20035;-77
2022/06/28 07:29:37;;;;;;;9.20;2.90;;;25.20;50.10;;;;;;4956945;28;20035;-76
2022/06/28 07:32:03;;;;;;;8.95;3.20;;;25.20;49.80;;;;;;4944210;29;20020;-76
2022/06/28 07:34:31;;;;;;;7.53;1.88;;;25.10;49.60;;;;;;4936808;29;20055;-76
2022/06/28 07:36:57;;;;;;;9.65;2.75;;;24.80;49.30;;;;;;4928478;29;20087;-76
2022/06/28 07:39:24;;;;;;;8.23;1.90;;;24.40;49.00;;;;;;4943853;28;20035;-76
2022/06/28 07:42:08;;;;;;;8.00;1.85;;;24.10;48.90;;;;;;4945042;28;20043;-76
2022/06/28 07:44:53;;;;;;;6.97;1.45;;;23.70;48.90;;;;;;4931222;29;20039;-76
2022/06/28 07:47:20;;;;;;;11.20;1.75;;;23.40;49.00;;;;;;4955055;28;20058;-77
2022/06/28 07:52:37;;;;;;;8.95;2.42;;;23.50;48.90;;;;;;4945158;28;20039;-75
2022/06/28 07:55:09;;;;;;;10.45;2.50;;;23.80;49.00;;;;;;4939726;29;20042;-77
2022/06/28 07:57:43;;;;;;;5.88;1.23;;;23.90;48.70;;;;;;4949381;28;20046;-76
2022/06/28 08:00:12;;;;;;;5.55;1.60;;;24.00;48.80;;;;;;4947810;29;20494;-76
2022/06/28 08:02:43;;;;;;;6.82;2.20;;;24.10;48.80;;;;;;4947185;29;20067;-78
2022/06/28 08:05:09;;;;;;;6.65;1.80;;;24.20;48.50;;;;;;4958541;28;20058;-76
2022/06/28 08:07:36;;;;;;;5.95;1.73;;;24.20;48.40;;;;;;4943925;29;20071;-74
2022/06/28 08:10:05;;;;;;;8.48;1.95;;;24.10;48.20;;;;;;4938890;29;20040;-74
2022/06/28 08:12:31;;;;;;;8.43;2.08;;;24.10;48.30;;;;;;4960092;28;20038;-73
2022/06/28 08:14:57;;;;;;;8.07;2.50;;;23.90;48.20;;;;;;4945474;29;20105;-75
2022/06/28 08:17:24;;;;;;;5.22;1.45;;;23.90;48.40;;;;;;4948826;29;20039;-74
2022/06/28 08:19:51;;;;;;;5.93;2.15;;;23.80;48.20;;;;;;4942471;28;20046;-74
2022/06/28 08:22:17;;;;;;;8.20;1.70;;;23.70;48.10;;;;;;4946733;28;20035;-74
2022/06/28 08:24:43;;;;;;;6.60;1.65;;;23.50;47.90;;;;;;4941439;28;20040;-74
2022/06/28 08:27:10;;;;;;;7.90;1.98;;;23.30;47.90;;;;;;4938243;29;20059;-73
2022/06/28 08:29:37;;;;;;;8.13;1.70;;;23.10;47.90;;;;;;4951903;28;20059;-74
2022/06/28 08:32:04;;;;;;;12.10;3.25;;;22.80;47.70;;;;;;4948235;28;20090;-73
2022/06/28 08:34:31;;;;;;;6.05;1.70;;;22.70;47.80;;;;;;4945375;29;20499;-74
2022/06/28 08:36:57;;;;;;;9.07;1.42;;;22.50;47.70;;;;;;4947569;29;20063;-74
2022/06/28 08:39:23;;;;;;;8.55;1.75;;;22.40;47.80;;;;;;4945160;29;20361;-74
2022/06/28 08:41:50;;;;;;;9.13;2.22;;;22.30;47.80;;;;;;4940045;29;20146;-76
2022/06/28 08:44:17;;;;;;;8.32;1.77;;;22.20;47.80;;;;;;4944797;29;20023;-73
2022/06/28 08:46:52;;;;;;;7.68;2.20;;;22.10;48.00;;;;;;4948492;29;20467;-74
2022/06/28 08:50:04;;;;;;;8.30;2.30;;;22.10;48.10;;;;;;4948994;28;20081;-74
2022/06/28 08:52:34;;;;;;;6.82;1.63;;;22.30;48.50;;;;;;4947466;29;20048;-74
2022/06/28 08:55:00;;;;;;;4.57;1.58;;;22.70;48.60;;;;;;4940589;28;20495;-74
2022/06/28 08:57:30;;;;;;;3.75;1.40;;;22.90;48.60;;;;;;4954871;29;20060;-75
2022/06/28 08:59:57;;;;;;;10.48;2.40;;;23.20;48.70;;;;;;4966202;28;20015;-75
2022/06/28 09:02:24;;;;;;;7.38;2.80;;;23.50;48.60;;;;;;4967972;29;20031;-74
2022/06/28 09:04:53;;;;;;;10.77;3.67;;;23.80;48.60;;;;;;4959612;29;20024;-74
2022/06/28 09:07:23;;;;;;;14.20;2.65;;;24.10;48.60;;;;;;4970753;28;20031;-74
2022/06/28 09:09:49;;;;;;;4.88;1.73;;;24.40;48.60;;;;;;4950452;28;20059;-75
2022/06/28 09:12:16;;;;;;;8.15;2.65;;;24.70;48.50;;;;;;4946841;29;20457;-75
2022/06/28 09:14:42;;;;;;;7.60;2.72;;;24.80;48.20;;;;;;4945286;28;20031;-75
2022/06/28 09:17:23;;;;;;;11.10;1.80;;;24.80;48.00;;;;;;4948872;28;20062;-75
2022/06/28 09:20:09;;;;;;;9.35;2.40;;;24.70;47.70;;;;;;4948071;28;20067;-75
2022/06/28 09:22:37;;;;;;;6.80;1.58;;;24.80;47.70;;;;;;4943693;29;20039;-75
2022/06/28 09:25:24;;;;;;;10.35;2.15;;;25.00;47.90;;;;;;4947118;28;20043;-75
2022/06/28 09:27:55;;;;;;;8.30;1.77;;;25.00;47.70;;;;;;4933031;29;20103;-74
2022/06/28 09:30:22;;;;;;;6.00;1.60;;;24.90;47.50;;;;;;4942426;29;20098;-74
2022/06/28 09:32:48;;;;;;;6.68;1.80;;;24.70;47.30;;;;;;4935080;29;20482;-74
2022/06/28 09:35:14;;;;;;;5.47;1.60;;;24.50;47.30;;;;;;4948222;28;20035;-75
2022/06/28 09:37:48;;;;;;;5.15;1.90;;;24.30;47.20;;;;;;4947519;28;20038;-74
2022/06/28 09:40:18;;;;;;;6.07;1.83;;;24.20;47.10;;;;;;4944425;28;20047;-74
2022/06/28 09:42:45;;;;;;;7.88;2.00;;;24.20;47.10;;;;;;4946721;29;20035;-75
2022/06/28 09:45:14;;;;;;;7.07;1.40;;;24.10;47.00;;;;;;4947860;29;20090;-75
2022/06/28 09:47:42;;;;;;;5.10;1.83;;;24.10;47.00;;;;;;4939756;29;20557;-75
2022/06/28 09:50:10;;;;;;;10.50;2.05;;;24.10;47.00;;;;;;4942413;28;20412;-74
2022/06/28 09:52:41;;;;;;;6.18;2.00;;;24.10;47.00;;;;;;4948061;28;20035;-75
2022/06/28 09:55:08;;;;;;;8.23;2.13;;;24.10;46.90;;;;;;4937670;29;20417;-75
2022/06/28 09:57:34;;;;;;;8.05;2.08;;;24.10;46.90;;;;;;4937680;28;20082;-75
2022/06/28 10:00:01;;;;;;;4.70;1.50;;;24.10;46.90;;;;;;4945671;29;20046;-77
2022/06/28 10:02:28;;;;;;;9.75;2.10;;;24.10;46.80;;;;;;4941940;28;20027;-75
2022/06/28 10:04:54;;;;;;;9.02;2.28;;;24.20;46.90;;;;;;4941480;29;20043;-76
2022/06/28 10:07:21;;;;;;;8.50;1.90;;;24.20;46.70;;;;;;4943083;28;20497;-77
2022/06/28 10:09:48;;;;;;;6.07;1.63;;;24.30;46.80;;;;;;4943947;28;20294;-77
2022/06/28 10:15:01;;;;;;;7.88;2.10;;;24.30;46.80;;;;;;4946433;28;20490;-78
2022/06/28 10:17:43;;;;;;;5.13;2.08;;;24.40;46.90;;;;;;4946498;29;20098;-76
2022/06/28 10:20:16;;;;;;;5.82;1.42;;;24.40;46.70;;;;;;4946077;29;20035;-77
2022/06/28 10:22:42;;;;;;;6.95;1.33;;;24.50;46.70;;;;;;4939786;29;20058;-76
2022/06/28 10:25:22;;;;;;;7.20;1.42;;;24.50;46.60;;;;;;4952102;28;20078;-76
2022/06/28 10:27:52;;;;;;;4.22;1.05;;;24.50;46.40;;;;;;4953722;28;20070;-76
2022/06/28 10:30:26;;;;;;;5.50;2.47;;;24.50;46.40;;;;;;4955957;28;20035;-76
2022/06/28 10:32:52;;;;;;;5.55;1.63;;;24.50;46.40;;;;;;4964253;28;20346;-77
2022/06/28 10:35:41;;;;;;;3.88;1.20;;;24.50;46.50;;;;;;4959358;28;20031;-76
2022/06/28 10:38:10;;;;;;;4.85;1.10;;;24.40;46.10;;;;;;4964999;28;20027;-77
2022/06/28 10:40:47;;;;;;;8.32;1.55;;;24.30;46.20;;;;;;4964149;28;20161;-77
2022/06/28 10:43:15;;;;;;;6.90;1.85;;;24.30;46.20;;;;;;4954425;28;20034;-77
2022/06/28 10:46:09;;;;;;;5.72;1.50;;;24.40;46.40;;;;;;4965747;28;20026;-76
2022/06/28 10:48:49;;;;;;;7.32;1.58;;;24.70;46.40;;;;;;4961387;28;20117;-73
2022/06/28 10:51:17;;;;;;;7.20;1.73;;;25.00;46.50;;;;;;4967939;28;20042;-75
2022/06/28 10:53:55;;;;;;;6.00;1.77;;;25.30;46.10;;;;;;4960949;28;20468;-74
2022/06/28 10:56:24;;;;;;;10.30;2.15;;;25.50;45.70;;;;;;4954882;28;20089;-76
2022/06/28 10:59:03;;;;;;;7.78;1.83;;;25.60;45.60;;;;;;4947260;28;20031;-76
2022/06/28 11:01:44;;;;;;;6.35;1.42;;;25.60;45.30;;;;;;4954487;28;20151;-76
2022/06/28 11:04:10;;;;;;;4.60;1.48;;;25.50;45.20;;;;;;4965126;28;20093;-76
2022/06/28 11:06:44;;;;;;;6.75;1.33;;;25.40;45.40;;;;;;4965328;28;20516;-77
2022/06/28 11:09:13;;;;;;;7.25;1.67;;;25.20;45.60;;;;;;4963975;28;20116;-75
2022/06/28 11:12:04;;;;;;;5.43;1.30;;;25.10;45.70;;;;;;4959628;28;20057;-76
2022/06/28 11:14:32;;;;;;;6.25;2.20;;;25.30;45.40;;;;;;4919933;28;20043;-75
2022/06/28 11:16:59;;;;;;;8.63;2.65;;;25.40;45.50;;;;;;4961545;28;20165;-77
2022/06/28 11:19:25;;;;;;;3.38;1.20;;;25.70;45.30;;;;;;4954947;28;20547;-75
2022/06/28 11:21:55;;;;;;;5.43;1.70;;;25.90;45.00;;;;;;4963804;28;20031;-75
2022/06/28 11:24:23;;;;;;;8.90;2.33;;;26.10;45.00;;;;;;4962041;28;20291;-75
2022/06/28 11:29:34;;;;;;;4.28;0.98;;;26.50;44.10;;;;;;4947192;28;20038;-76
2022/06/28 11:32:00;;;;;;;6.10;1.80;;;26.80;43.90;;;;;;4951599;28;20030;-76
2022/06/28 11:34:26;;;;;;;5.75;1.92;;;26.90;43.60;;;;;;4951748;28;20131;-76
2022/06/28 11:36:56;;;;;;;6.97;1.88;;;26.90;43.40;;;;;;4965364;28;20037;-76
2022/06/28 11:39:23;;;;;;;7.20;1.30;;;27.10;43.20;;;;;;4959731;28;20101;-76
2022/06/28 11:41:54;;;;;;;5.57;1.10;;;27.00;42.90;;;;;;4947009;28;20117;-75
2022/06/28 11:44:21;;;;;;;5.57;1.05;;;26.90;42.80;;;;;;4965558;28;20134;-75
2022/06/28 11:46:49;;;;;;;6.78;1.73;;;26.70;42.80;;;;;;4965147;28;20490;-76
2022/06/28 11:49:28;;;;;;;4.15;1.20;;;26.50;42.90;;;;;;4945062;28;20100;-76
2022/06/28 11:51:54;;;;;;;7.22;1.95;;;26.10;43.00;;;;;;4965043;28;20031;-76
2022/06/28 11:54:20;;;;;;;5.25;1.40;;;25.80;43.40;;;;;;4955883;28;20042;-76
2022/06/28 11:56:47;;;;;;;6.75;1.67;;;25.60;43.80;;;;;;4958379;28;20043;-76
2022/06/28 11:59:15;;;;;;;5.47;1.95;;;25.30;43.90;;;;;;4953932;28;20110;-76
2022/06/28 12:01:42;;;;;;;4.60;1.17;;;25.20;44.10;;;;;;4947538;28;20272;-76
2022/06/28 12:04:09;;;;;;;6.05;1.75;;;25.10;44.30;;;;;;4965516;28;20033;-76
2022/06/28 12:06:40;;;;;;;5.47;1.48;;;24.90;44.20;;;;;;4940937;28;20032;-76
2022/06/28 12:09:09;;;;;;;7.88;1.70;;;24.80;44.10;;;;;;4964938;28;20405;-76
2022/06/28 12:11:36;;;;;;;7.47;1.90;;;24.70;44.10;;;;;;4956619;28;20521;-76
2022/06/28 12:14:02;;;;;;;8.27;1.85;;;24.50;44.00;;;;;;4932077;28;20049;-75
2022/06/28 12:16:46;;;;;;;6.00;2.05;;;24.50;44.10;;;;;;4965217;28;20031;-76
2022/06/28 12:19:18;;;;;;;6.57;1.60;;;24.40;43.90;;;;;;4959168;28;20400;-76
2022/06/28 12:22:23;;;;;;;7.75;1.90;;;24.40;44.00;;;;;;4960995;28;20037;-76
2022/06/28 12:24:55;;;;;;;7.40;1.95;;;24.20;43.90;;;;;;4918597;29;20131;-75
2022/06/28 12:27:31;;;;;;;8.02;1.92;;;24.00;43.90;;;;;;4939943;28;20124;-75
2022/06/28 12:29:59;;;;;;;4.85;1.55;;;23.80;43.90;;;;;;4959642;28;20107;-76
2022/06/28 12:32:26;;;;;;;6.60;2.05;;;23.60;43.90;;;;;;4957217;28;20039;-76
2022/06/28 12:35:00;;;;;;;7.90;2.00;;;23.40;44.00;;;;;;4947875;28;20079;-76
2022/06/28 12:37:27;;;;;;;9.77;2.28;;;23.30;44.30;;;;;;4939873;28;20438;-75
2022/06/28 12:39:54;;;;;;;8.32;1.45;;;23.10;44.30;;;;;;4954347;28;20105;-75
2022/06/28 12:42:20;;;;;;;5.55;1.70;;;23.00;44.60;;;;;;4958200;28;20031;-76
2022/06/28 12:44:46;;;;;;;7.43;2.10;;;22.80;45.10;;;;;;4958983;28;20039;-75
2022/06/28 12:47:12;;;;;;;5.75;1.67;;;22.70;44.70;;;;;;4976986;28;20035;-75
2022/06/28 12:49:38;;;;;;;5.70;1.25;;;22.60;44.80;;;;;;4948950;28;20058;-75
2022/06/28 12:52:05;;;;;;;5.20;1.45;;;22.60;45.00;;;;;;4951035;28;20031;-77
2022/06/28 12:54:32;;;;;;;6.65;1.63;;;22.50;45.10;;;;;;4951279;28;20069;-75
2022/06/28 12:56:58;;;;;;;6.18;1.50;;;22.40;45.10;;;;;;4964058;28;20404;-74
2022/06/28 12:59:24;;;;;;;3.83;1.52;;;22.40;45.30;;;;;;4968170;28;20027;-74
2022/06/28 13:01:50;;;;;;;4.35;1.20;;;22.40;45.50;;;;;;4968557;28;20037;-75
2022/06/28 13:04:17;;;;;;;7.28;1.65;;;22.30;45.50;;;;;;4960410;28;20031;-74
2022/06/28 13:06:44;;;;;;;8.13;1.65;;;22.30;45.70;;;;;;4947214;28;20035;-74
2022/06/28 13:09:14;;;;;;;7.47;2.33;;;22.20;45.70;;;;;;4949839;28;20043;-75
2022/06/28 13:11:40;;;;;;;4.85;1.27;;;22.10;45.80;;;;;;4957766;28;20032;-75
2022/06/28 13:14:06;;;;;;;6.78;1.50;;;22.00;45.80;;;;;;4967915;28;20130;-76